createdAt,value
2022-09-30T00:00:03.873Z,16.10
2022-09-30T00:01:05.720Z,16.63
2022-09-30T00:02:08.533Z,15.30
2022-09-30T00:03:10.227Z,21.63
2022-09-30T00:04:17.138Z,18.13
2022-09-30T00:05:18.753Z,15.90
2022-09-30T00:06:20.880Z,17.38
2022-09-30T00:07:22.689Z,17.85
2022-09-30T00:08:24.947Z,21.17
2022-09-30T00:09:26.943Z,16.40
2022-09-30T00:10:29.533Z,19.13
2022-09-30T00:11:34.160Z,16.90
2022-09-30T00:12:36.013Z,17.40
2022-09-30T00:13:39.074Z,19.13
2022-09-30T00:14:40.840Z,17.55
2022-09-30T00:15:47.025Z,18.48
2022-09-30T00:16:49.410Z,18.77
2022-09-30T00:17:51.032Z,16.40
2022-09-30T00:18:55.415Z,14.50
2022-09-30T00:19:57.231Z,16.77
2022-09-30T00:20:59.596Z,18.30
2022-09-30T00:22:01.676Z,15.23
2022-09-30T00:23:03.301Z,17.83
2022-09-30T00:24:06.018Z,17.67
2022-09-30T00:25:07.959Z,14.40
2022-09-30T00:26:13.633Z,17.13
2022-09-30T00:27:18.147Z,18.30
2022-09-30T00:28:19.860Z,20.85
2022-09-30T00:29:21.529Z,17.45
2022-09-30T00:30:23.605Z,16.27
2022-09-30T00:31:28.188Z,16.88
2022-09-30T00:32:29.864Z,16.33
2022-09-30T00:33:31.958Z,19.90
2022-09-30T00:34:33.613Z,19.30
2022-09-30T00:35:36.272Z,15.82
2022-09-30T00:36:43.108Z,19.58
2022-09-30T00:37:44.794Z,14.82
2022-09-30T00:38:46.390Z,15.52
2022-09-30T00:39:48.216Z,19.90
2022-09-30T00:40:51.616Z,17.50
2022-09-30T00:41:57.415Z,19.08
2022-09-30T00:43:00.074Z,15.13
2022-09-30T00:44:01.876Z,15.05
2022-09-30T00:45:06.370Z,20.17
2022-09-30T00:46:40.934Z,14.15
2022-09-30T00:47:53.571Z,20.02
2022-09-30T00:48:58.598Z,15.02
2022-09-30T00:50:21.328Z,18.42
2022-09-30T00:51:36.612Z,15.00
2022-09-30T00:52:38.698Z,16.05
2022-09-30T00:53:55.670Z,14.30
2022-09-30T00:55:01.402Z,18.02
2022-09-30T00:56:08.083Z,18.58
2022-09-30T00:57:11.330Z,20.02
2022-09-30T00:58:20.014Z,14.45
2022-09-30T00:59:44.648Z,19.15
2022-09-30T01:00:46.901Z,22.15
2022-09-30T01:01:49.755Z,23.92
2022-09-30T01:02:51.635Z,14.55
2022-09-30T01:04:01.557Z,13.05
2022-09-30T01:05:03.528Z,16.52
2022-09-30T01:06:05.609Z,19.70
2022-09-30T01:07:08.696Z,15.73
2022-09-30T01:08:11.214Z,22.23
2022-09-30T01:09:13.439Z,16.83
2022-09-30T01:10:15.362Z,14.80
2022-09-30T01:11:17.740Z,15.80
2022-09-30T01:12:23.126Z,15.63
2022-09-30T01:13:27.984Z,15.73
2022-09-30T01:14:30.015Z,15.88
2022-09-30T01:15:59.519Z,19.15
2022-09-30T01:17:36.853Z,15.55
2022-09-30T01:18:53.672Z,18.63
2022-09-30T01:20:17.298Z,20.02
2022-09-30T01:21:34.830Z,21.63
2022-09-30T01:23:03.802Z,16.85
2022-09-30T01:24:08.125Z,16.20
2022-09-30T01:25:31.741Z,18.60
2022-09-30T01:26:57.433Z,15.70
2022-09-30T01:28:14.410Z,17.67
2022-09-30T01:29:46.677Z,15.50
2022-09-30T01:31:19.025Z,15.13
2022-09-30T01:32:42.000Z,14.43
2022-09-30T01:33:54.264Z,15.85
2022-09-30T01:35:31.999Z,18.92
2022-09-30T01:36:43.412Z,19.33
2022-09-30T01:37:57.178Z,16.55
2022-09-30T01:39:12.729Z,26.45
2022-09-30T01:40:37.477Z,17.45
2022-09-30T01:41:52.378Z,14.70
2022-09-30T01:43:04.864Z,16.83
2022-09-30T01:44:19.020Z,19.17
2022-09-30T01:45:46.795Z,16.70
2022-09-30T01:46:56.823Z,17.40
2022-09-30T01:48:10.291Z,21.48
2022-09-30T01:49:38.888Z,18.70
2022-09-30T01:50:54.229Z,19.63
2022-09-30T01:52:20.564Z,19.17
2022-09-30T01:54:11.408Z,18.80
2022-09-30T01:55:49.258Z,25.73
2022-09-30T01:57:05.471Z,19.00
2022-09-30T02:00:07.843Z,21.05
2022-09-30T02:01:18.817Z,20.40
2022-09-30T02:02:29.834Z,20.73
2022-09-30T02:03:37.394Z,19.20
2022-09-30T02:04:43.017Z,16.15
2022-09-30T02:06:02.493Z,19.73
2022-09-30T02:07:11.286Z,17.27
2022-09-30T02:08:19.743Z,21.58
2022-09-30T02:09:27.091Z,16.05
2022-09-30T02:10:44.860Z,23.23
2022-09-30T02:11:48.053Z,16.35
2022-09-30T02:12:57.974Z,13.52
2022-09-30T02:14:07.487Z,15.80
2022-09-30T02:15:13.628Z,15.45
2022-09-30T02:16:22.962Z,18.85
2022-09-30T02:17:30.657Z,33.20
2022-09-30T02:18:40.470Z,21.02
2022-09-30T02:19:50.071Z,17.20
2022-09-30T02:20:58.496Z,21.63
2022-09-30T02:22:08.348Z,19.48
2022-09-30T02:23:27.800Z,19.27
2022-09-30T02:24:38.020Z,18.05
2022-09-30T02:25:45.401Z,19.85
2022-09-30T02:26:48.217Z,17.85
2022-09-30T02:27:57.036Z,17.40
2022-09-30T02:29:04.774Z,17.85
2022-09-30T02:30:09.382Z,19.48
2022-09-30T02:31:12.322Z,22.23
2022-09-30T02:32:24.580Z,17.05
2022-09-30T02:33:41.375Z,18.35
2022-09-30T02:34:48.025Z,16.98
2022-09-30T02:35:54.270Z,19.67
2022-09-30T02:37:39.362Z,19.05
2022-09-30T02:38:46.023Z,14.50
2022-09-30T02:39:50.478Z,15.15
2022-09-30T02:41:02.390Z,16.20
2022-09-30T02:42:13.711Z,17.88
2022-09-30T02:43:16.779Z,15.32
2022-09-30T02:44:19.621Z,17.25
2022-09-30T02:45:23.920Z,15.77
2022-09-30T02:46:47.458Z,17.90
2022-09-30T02:47:52.136Z,14.55
2022-09-30T02:49:09.910Z,15.48
2022-09-30T02:50:16.671Z,15.23
2022-09-30T02:51:32.828Z,15.23
2022-09-30T02:53:01.553Z,16.00
2022-09-30T02:54:35.787Z,20.40
2022-09-30T02:56:03.259Z,16.60
2022-09-30T02:57:15.783Z,14.18
2022-09-30T02:58:22.679Z,16.92
2022-09-30T02:59:25.867Z,20.10
2022-09-30T03:00:27.792Z,13.38
2022-09-30T03:01:30.856Z,18.92
2022-09-30T03:02:32.630Z,14.27
2022-09-30T03:03:37.637Z,18.50
2022-09-30T03:04:41.448Z,16.15
2022-09-30T03:05:44.790Z,15.50
2022-09-30T03:06:46.589Z,17.10
2022-09-30T03:07:48.191Z,18.48
2022-09-30T03:08:51.577Z,17.30
2022-09-30T03:09:59.042Z,15.18
2022-09-30T03:11:00.837Z,22.20
2022-09-30T03:12:12.167Z,14.40
2022-09-30T03:13:16.777Z,17.52
2022-09-30T03:14:29.732Z,15.25
2022-09-30T03:15:57.861Z,16.58
2022-09-30T03:17:17.276Z,16.92
2022-09-30T03:18:37.232Z,14.70
2022-09-30T03:20:24.565Z,21.90
2022-09-30T03:21:37.579Z,24.90
2022-09-30T03:22:59.517Z,17.10
2022-09-30T03:24:28.438Z,14.75
2022-09-30T03:25:32.873Z,17.85
2022-09-30T03:26:46.724Z,13.35
2022-09-30T03:28:10.151Z,17.15
2022-09-30T03:29:49.751Z,17.45
2022-09-30T03:31:03.180Z,20.02
2022-09-30T03:32:39.993Z,14.75
2022-09-30T03:33:53.921Z,15.23
2022-09-30T03:35:01.526Z,17.17
2022-09-30T03:36:37.731Z,23.52
2022-09-30T03:37:51.125Z,17.58
2022-09-30T03:39:11.137Z,19.05
2022-09-30T03:40:37.653Z,19.95
2022-09-30T03:42:09.968Z,20.30
2022-09-30T03:43:28.885Z,14.77
2022-09-30T03:44:41.081Z,18.70
2022-09-30T03:45:51.661Z,20.98
2022-09-30T03:46:57.552Z,17.10
2022-09-30T03:48:04.027Z,16.50
2022-09-30T03:49:10.927Z,16.85
2022-09-30T03:50:18.728Z,15.35
2022-09-30T03:51:21.964Z,13.77
2022-09-30T03:52:26.277Z,17.27
2022-09-30T03:53:28.817Z,20.00
2022-09-30T03:54:31.917Z,17.52
2022-09-30T03:55:33.760Z,18.95
2022-09-30T03:56:35.724Z,14.80
2022-09-30T03:57:39.743Z,20.85
2022-09-30T03:58:44.294Z,19.55
2022-09-30T03:59:45.954Z,14.02
2022-09-30T04:00:50.364Z,14.55
2022-09-30T04:01:52.789Z,16.00
2022-09-30T04:02:57.877Z,24.02
2022-09-30T04:03:59.685Z,18.98
2022-09-30T04:05:01.317Z,16.17
2022-09-30T04:06:03.381Z,19.80
2022-09-30T04:07:05.628Z,17.67
2022-09-30T04:08:07.242Z,14.43
2022-09-30T04:09:08.950Z,16.25
2022-09-30T04:10:12.065Z,19.23
2022-09-30T04:11:14.099Z,18.63
2022-09-30T04:12:15.737Z,17.98
2022-09-30T04:13:17.429Z,16.25
2022-09-30T04:14:19.165Z,20.25
2022-09-30T04:15:23.767Z,25.90
2022-09-30T04:16:25.415Z,14.65
2022-09-30T04:17:27.097Z,14.90
2022-09-30T04:18:32.501Z,14.70
2022-09-30T04:19:38.313Z,16.20
2022-09-30T04:20:39.942Z,16.23
2022-09-30T04:21:41.539Z,15.85
2022-09-30T04:22:43.253Z,19.95
2022-09-30T04:23:47.280Z,17.77
2022-09-30T04:24:48.936Z,13.88
2022-09-30T04:25:55.339Z,17.58
2022-09-30T04:26:58.014Z,22.77
2022-09-30T04:27:59.934Z,17.15
2022-09-30T04:29:01.620Z,16.65
2022-09-30T04:30:06.117Z,15.65
2022-09-30T04:31:08.361Z,16.13
2022-09-30T04:32:10.112Z,18.48
2022-09-30T04:33:12.813Z,13.80
2022-09-30T04:34:14.994Z,15.75
2022-09-30T04:35:16.704Z,15.85
2022-09-30T04:36:18.629Z,15.35
2022-09-30T04:37:22.142Z,20.02
2022-09-30T04:38:24.626Z,14.85
2022-09-30T04:39:26.652Z,17.58
2022-09-30T04:40:28.243Z,18.58
2022-09-30T04:41:30.089Z,16.80
2022-09-30T04:42:31.729Z,16.70
2022-09-30T04:43:34.366Z,16.25
2022-09-30T04:44:36.153Z,20.60
2022-09-30T04:45:39.281Z,14.82
2022-09-30T04:46:41.262Z,14.35
2022-09-30T04:47:45.876Z,18.77
2022-09-30T04:48:48.060Z,17.13
2022-09-30T04:49:49.683Z,21.52
2022-09-30T04:50:51.860Z,16.05
2022-09-30T04:51:53.503Z,13.18
2022-09-30T04:52:56.981Z,19.95
2022-09-30T04:54:03.795Z,15.55
2022-09-30T04:55:06.104Z,16.52
2022-09-30T04:56:08.241Z,15.38
2022-09-30T04:57:10.505Z,17.92
2022-09-30T04:58:15.407Z,16.15
2022-09-30T04:59:17.170Z,17.73
2022-09-30T05:00:18.874Z,14.65
2022-09-30T05:01:21.343Z,16.60
2022-09-30T05:02:24.192Z,18.58
2022-09-30T05:03:25.937Z,22.02
2022-09-30T05:04:27.572Z,14.48
2022-09-30T05:05:29.473Z,21.38
2022-09-30T05:06:31.263Z,18.02
2022-09-30T05:07:35.081Z,15.52
2022-09-30T05:08:38.806Z,13.95
2022-09-30T05:09:43.543Z,18.05
2022-09-30T05:10:46.965Z,16.23
2022-09-30T05:11:48.575Z,21.58
2022-09-30T05:12:53.199Z,20.17
2022-09-30T05:13:55.557Z,17.33
2022-09-30T05:14:57.296Z,17.52
2022-09-30T05:15:59.063Z,15.55
2022-09-30T05:17:01.301Z,20.60
2022-09-30T05:18:03.133Z,15.63
2022-09-30T05:19:05.053Z,15.07
2022-09-30T05:20:10.899Z,14.27
2022-09-30T05:21:15.334Z,18.42
2022-09-30T05:22:17.014Z,14.23
2022-09-30T05:23:22.379Z,16.67
2022-09-30T05:24:24.240Z,17.20
2022-09-30T05:25:26.016Z,15.95
2022-09-30T05:26:27.906Z,19.83
2022-09-30T05:27:29.773Z,17.90
2022-09-30T05:28:31.432Z,15.20
2022-09-30T05:29:33.099Z,15.80
2022-09-30T05:30:34.800Z,17.55
2022-09-30T05:31:36.477Z,18.25
2022-09-30T05:32:39.031Z,15.02
2022-09-30T05:33:41.939Z,15.02
2022-09-30T05:34:43.714Z,18.65
2022-09-30T05:35:45.459Z,15.95
2022-09-30T05:36:47.207Z,21.20
2022-09-30T05:37:49.180Z,16.95
2022-09-30T05:38:52.119Z,17.48
2022-09-30T05:39:55.306Z,18.65
2022-09-30T05:40:57.041Z,17.25
2022-09-30T05:41:59.343Z,17.38
2022-09-30T05:43:01.099Z,18.83
2022-09-30T05:44:02.743Z,18.33
2022-09-30T05:45:06.536Z,18.48
2022-09-30T05:46:08.530Z,19.50
2022-09-30T05:47:11.729Z,17.15
2022-09-30T05:48:13.601Z,14.48
2022-09-30T05:49:15.486Z,16.45
2022-09-30T05:50:17.507Z,16.17
2022-09-30T05:51:21.965Z,14.35
2022-09-30T05:52:23.599Z,21.33
2022-09-30T05:53:25.256Z,16.08
2022-09-30T05:54:27.503Z,17.35
2022-09-30T05:55:30.156Z,17.02
2022-09-30T05:56:38.772Z,15.27
2022-09-30T05:57:41.253Z,17.95
2022-09-30T05:58:47.259Z,18.67
2022-09-30T05:59:51.030Z,15.73
2022-09-30T06:00:54.333Z,26.40
2022-09-30T06:01:58.052Z,20.02
2022-09-30T06:03:00.015Z,18.67
2022-09-30T06:04:04.088Z,16.75
2022-09-30T06:05:07.932Z,18.67
2022-09-30T06:06:10.445Z,21.17
2022-09-30T06:07:14.155Z,20.08
2022-09-30T06:08:19.043Z,22.38
2022-09-30T06:09:20.960Z,20.75
2022-09-30T06:10:24.207Z,21.65
2022-09-30T06:11:27.924Z,22.55
2022-09-30T06:12:30.144Z,15.90
2022-09-30T06:13:33.249Z,17.05
2022-09-30T06:14:36.046Z,18.30
2022-09-30T06:15:39.628Z,24.33
2022-09-30T06:16:41.526Z,17.70
2022-09-30T06:17:43.412Z,26.58
2022-09-30T06:18:46.221Z,21.08
2022-09-30T06:19:49.924Z,14.70
2022-09-30T06:20:52.007Z,21.15
2022-09-30T06:21:53.689Z,24.83
2022-09-30T06:22:55.482Z,22.08
2022-09-30T06:23:57.302Z,18.58
2022-09-30T06:25:00.104Z,20.55
2022-09-30T06:26:05.777Z,22.70
2022-09-30T06:27:07.369Z,19.65
2022-09-30T06:28:08.978Z,19.77
2022-09-30T06:29:10.709Z,17.23
2022-09-30T06:30:13.046Z,19.88
2022-09-30T06:31:14.768Z,18.45
2022-09-30T06:32:17.292Z,20.42
2022-09-30T06:33:21.168Z,20.55
2022-09-30T06:34:23.665Z,23.27
2022-09-30T06:35:26.648Z,22.10
2022-09-30T06:36:32.097Z,23.38
2022-09-30T06:37:36.792Z,27.08
2022-09-30T06:38:42.870Z,30.90
2022-09-30T06:39:44.917Z,23.65
2022-09-30T06:40:50.058Z,36.15
2022-09-30T06:41:51.843Z,23.67
2022-09-30T06:43:01.497Z,21.90
2022-09-30T06:44:03.476Z,28.75
2022-09-30T06:45:05.604Z,29.38
2022-09-30T06:46:15.346Z,34.00
2022-09-30T06:47:25.191Z,27.10
2022-09-30T06:48:37.373Z,21.77
2022-09-30T06:49:48.269Z,31.08
2022-09-30T06:51:01.597Z,26.02
2022-09-30T06:52:04.065Z,24.65
2022-09-30T06:53:08.351Z,31.33
2022-09-30T06:54:11.111Z,25.42
2022-09-30T06:55:12.869Z,30.48
2022-09-30T06:56:15.278Z,25.55
2022-09-30T06:57:22.601Z,30.40
2022-09-30T06:58:27.211Z,26.73
2022-09-30T06:59:28.856Z,24.77
2022-09-30T07:00:31.026Z,23.58
2022-09-30T07:01:32.744Z,26.05
2022-09-30T07:02:35.111Z,26.20
2022-09-30T07:03:37.271Z,28.38
2022-09-30T07:04:39.018Z,28.80
2022-09-30T07:05:40.645Z,25.27
2022-09-30T07:06:42.752Z,21.05
2022-09-30T07:07:44.690Z,25.08
2022-09-30T07:08:47.522Z,24.33
2022-09-30T07:09:50.248Z,30.65
2022-09-30T07:10:52.843Z,22.17
2022-09-30T07:11:54.485Z,21.40
2022-09-30T07:12:56.154Z,23.55
2022-09-30T07:13:57.829Z,26.70
2022-09-30T07:15:00.302Z,23.48
2022-09-30T07:16:02.083Z,24.70
2022-09-30T07:17:04.734Z,24.00
2022-09-30T07:18:06.689Z,23.90
2022-09-30T07:19:10.325Z,20.90
2022-09-30T07:20:12.002Z,28.98
2022-09-30T07:21:16.027Z,23.23
2022-09-30T07:22:28.225Z,20.50
2022-09-30T07:23:30.214Z,22.50
2022-09-30T07:24:31.836Z,19.98
2022-09-30T07:25:33.469Z,27.15
2022-09-30T07:26:35.328Z,31.30
2022-09-30T07:27:37.389Z,25.10
2022-09-30T07:28:39.773Z,35.92
2022-09-30T07:30:04.338Z,23.38
2022-09-30T07:31:31.977Z,28.50
2022-09-30T07:32:34.709Z,30.65
2022-09-30T07:33:36.385Z,23.33
2022-09-30T07:34:38.886Z,21.73
2022-09-30T07:35:40.968Z,20.00
2022-09-30T07:36:43.939Z,22.20
2022-09-30T07:37:46.099Z,22.95
2022-09-30T07:38:51.425Z,21.85
2022-09-30T07:39:53.552Z,19.25
2022-09-30T07:40:58.463Z,20.08
2022-09-30T07:42:02.075Z,22.08
2022-09-30T07:43:04.452Z,25.38
2022-09-30T07:44:11.036Z,20.67
2022-09-30T07:45:17.135Z,32.15
2022-09-30T07:46:24.391Z,26.13
2022-09-30T07:47:26.341Z,20.17
2022-09-30T07:48:44.614Z,21.92
2022-09-30T07:49:46.321Z,21.55
2022-09-30T07:50:48.577Z,20.65
2022-09-30T07:51:51.510Z,23.20
2022-09-30T07:52:53.692Z,31.95
2022-09-30T07:53:58.469Z,23.63
2022-09-30T07:55:00.174Z,27.27
2022-09-30T07:56:08.732Z,27.33
2022-09-30T07:57:11.312Z,29.15
2022-09-30T07:58:13.492Z,22.58
2022-09-30T07:59:15.673Z,21.55
2022-09-30T08:00:41.165Z,23.40
2022-09-30T08:01:40.628Z,21.35
2022-09-30T08:02:42.368Z,25.73
2022-09-30T08:03:45.077Z,20.95
2022-09-30T08:04:46.864Z,27.20
2022-09-30T08:05:49.662Z,29.70
2022-09-30T08:06:55.960Z,28.60
2022-09-30T08:07:57.574Z,19.30
2022-09-30T08:08:59.520Z,18.20
2022-09-30T08:10:01.210Z,22.33
2022-09-30T08:11:04.375Z,27.00
2022-09-30T08:12:06.275Z,22.08
2022-09-30T08:13:08.929Z,21.73
2022-09-30T08:14:20.674Z,23.85
2022-09-30T08:15:22.362Z,26.30
2022-09-30T08:16:25.610Z,22.05
2022-09-30T08:17:27.255Z,21.55
2022-09-30T08:18:29.746Z,27.63
2022-09-30T08:19:33.806Z,22.42
2022-09-30T08:20:35.607Z,24.08
2022-09-30T08:21:37.263Z,21.15
2022-09-30T08:22:38.937Z,20.77
2022-09-30T08:23:41.474Z,20.40
2022-09-30T08:24:43.101Z,23.10
2022-09-30T08:25:44.826Z,22.80
2022-09-30T08:26:46.997Z,29.55
2022-09-30T08:27:49.232Z,25.30
2022-09-30T08:28:51.188Z,23.85
2022-09-30T08:29:55.877Z,20.75
2022-09-30T08:31:16.186Z,22.00
2022-09-30T08:32:17.878Z,17.63
2022-09-30T08:33:19.518Z,18.85
2022-09-30T08:34:23.708Z,17.90
2022-09-30T08:35:25.388Z,23.38
2022-09-30T08:36:28.029Z,21.33
2022-09-30T08:37:29.652Z,18.80
2022-09-30T08:38:33.613Z,19.45
2022-09-30T08:39:35.387Z,18.80
2022-09-30T08:40:53.550Z,16.15
2022-09-30T08:42:32.270Z,18.60
2022-09-30T08:43:58.109Z,25.83
2022-09-30T08:45:29.477Z,21.23
2022-09-30T08:46:44.800Z,17.77
2022-09-30T08:48:02.801Z,19.25
2022-09-30T08:49:17.758Z,23.05
2022-09-30T08:50:43.011Z,21.65
2022-09-30T08:51:50.203Z,17.05
2022-09-30T08:52:58.048Z,17.13
2022-09-30T08:54:03.000Z,22.23
2022-09-30T08:55:06.867Z,18.73
2022-09-30T08:56:11.961Z,22.75
2022-09-30T08:57:13.944Z,19.25
2022-09-30T08:58:26.432Z,22.52
2022-09-30T08:59:39.349Z,19.50
2022-09-30T09:00:42.940Z,20.17
2022-09-30T09:01:48.698Z,23.48
2022-09-30T09:02:57.244Z,22.17
2022-09-30T09:04:00.529Z,23.70
2022-09-30T09:05:05.319Z,19.83
2022-09-30T09:06:13.714Z,21.95
2022-09-30T09:07:37.075Z,27.15
2022-09-30T09:09:04.773Z,19.20
2022-09-30T09:10:22.413Z,27.27
2022-09-30T09:11:46.047Z,21.17
2022-09-30T09:12:55.558Z,25.08
2022-09-30T09:14:23.673Z,19.60
2022-09-30T09:16:02.628Z,21.95
2022-09-30T09:17:39.248Z,20.25
2022-09-30T09:19:03.861Z,24.38
2022-09-30T09:20:16.158Z,27.10
2022-09-30T09:21:41.539Z,21.30
2022-09-30T09:22:45.970Z,20.90
2022-09-30T09:23:50.483Z,22.33
2022-09-30T09:24:53.606Z,20.95
2022-09-30T09:25:55.877Z,17.55
2022-09-30T09:26:59.347Z,34.92
2022-09-30T09:28:06.406Z,21.52
2022-09-30T09:29:30.219Z,21.30
2022-09-30T09:30:48.111Z,17.63
2022-09-30T09:31:49.919Z,24.33
2022-09-30T09:33:02.878Z,21.80
2022-09-30T09:34:11.231Z,23.65
2022-09-30T09:35:36.121Z,19.60
2022-09-30T09:36:59.608Z,19.85
2022-09-30T09:38:25.170Z,25.25
2022-09-30T09:39:41.434Z,20.17
2022-09-30T09:41:04.806Z,19.30
2022-09-30T09:42:29.307Z,23.77
2022-09-30T09:43:38.642Z,20.08
2022-09-30T09:45:09.437Z,17.60
2022-09-30T09:46:39.780Z,19.92
2022-09-30T09:47:45.782Z,20.08
2022-09-30T09:48:47.415Z,22.90
2022-09-30T09:49:57.529Z,23.55
2022-09-30T09:51:21.151Z,19.05
2022-09-30T09:53:09.398Z,23.05
2022-09-30T09:54:13.098Z,16.80
2022-09-30T09:55:19.031Z,18.15
2022-09-30T09:56:22.964Z,22.42
2022-09-30T09:57:27.928Z,25.70
2022-09-30T09:58:30.850Z,23.40
2022-09-30T09:59:32.683Z,21.73
2022-09-30T10:00:46.816Z,33.75
2022-09-30T10:01:51.634Z,19.23
2022-09-30T10:03:28.011Z,32.13
2022-09-30T10:04:33.228Z,19.27
2022-09-30T10:05:42.978Z,20.02
2022-09-30T10:06:52.970Z,16.27
2022-09-30T10:08:22.165Z,22.65
2022-09-30T10:09:36.199Z,29.10
2022-09-30T10:10:57.651Z,19.52
2022-09-30T10:12:05.349Z,20.75
2022-09-30T10:13:16.220Z,20.83
2022-09-30T10:14:22.133Z,19.10
2022-09-30T10:15:26.567Z,20.13
2022-09-30T10:16:35.628Z,21.70
2022-09-30T10:17:40.593Z,22.70
2022-09-30T10:18:42.985Z,18.02
2022-09-30T10:19:51.357Z,32.25
2022-09-30T10:21:14.630Z,23.75
2022-09-30T10:22:17.045Z,17.00
2022-09-30T10:23:37.894Z,18.08
2022-09-30T10:24:40.165Z,17.30
2022-09-30T10:26:14.917Z,18.70
2022-09-30T10:27:31.808Z,14.90
2022-09-30T10:28:45.250Z,19.13
2022-09-30T10:29:47.817Z,20.42
2022-09-30T10:30:54.108Z,24.65
2022-09-30T10:31:59.618Z,19.95
2022-09-30T10:33:04.393Z,22.25
2022-09-30T10:34:24.826Z,16.77
2022-09-30T10:35:26.565Z,15.82
2022-09-30T10:36:36.545Z,18.85
2022-09-30T10:37:39.313Z,19.58
2022-09-30T10:39:04.094Z,20.17
2022-09-30T10:40:16.177Z,18.13
2022-09-30T10:41:27.701Z,20.98
2022-09-30T10:42:32.846Z,18.33
2022-09-30T10:43:38.678Z,16.38
2022-09-30T10:44:50.914Z,19.17
2022-09-30T10:46:13.823Z,15.32
2022-09-30T10:47:18.880Z,15.38
2022-09-30T10:48:25.371Z,14.45
2022-09-30T10:49:50.152Z,23.40
2022-09-30T10:50:56.718Z,17.63
2022-09-30T10:52:00.437Z,14.75
2022-09-30T10:53:14.281Z,15.40
2022-09-30T10:54:40.867Z,18.55
2022-09-30T10:55:44.805Z,16.85
2022-09-30T10:56:46.836Z,14.70
2022-09-30T10:57:50.953Z,17.95
2022-09-30T10:58:56.412Z,14.43
2022-09-30T11:00:05.635Z,14.65
2022-09-30T11:01:45.783Z,16.88
2022-09-30T11:03:20.790Z,17.50
2022-09-30T11:04:26.271Z,16.98
2022-09-30T11:05:59.177Z,17.25
2022-09-30T11:07:17.003Z,16.48
2022-09-30T11:08:36.190Z,15.15
2022-09-30T11:09:50.236Z,19.98
2022-09-30T11:10:57.942Z,14.15
2022-09-30T11:12:09.279Z,14.07
2022-09-30T11:13:31.912Z,14.85
2022-09-30T11:14:39.385Z,18.38
2022-09-30T11:16:17.797Z,21.45
2022-09-30T11:17:54.998Z,15.00
2022-09-30T11:19:11.281Z,16.95
2022-09-30T11:20:18.907Z,17.90
2022-09-30T11:21:40.237Z,14.57
2022-09-30T11:23:03.595Z,18.77
2022-09-30T11:24:20.821Z,17.45
2022-09-30T11:25:40.264Z,18.40
2022-09-30T11:26:53.898Z,19.63
2022-09-30T11:28:28.010Z,15.18
2022-09-30T11:30:00.004Z,16.88
2022-09-30T11:31:16.798Z,15.23
2022-09-30T11:32:56.009Z,18.35
2022-09-30T11:34:10.657Z,24.65
2022-09-30T11:35:30.950Z,15.75
2022-09-30T11:36:55.872Z,17.42
2022-09-30T11:38:14.396Z,15.82
2022-09-30T11:39:44.962Z,14.77
2022-09-30T11:41:18.947Z,18.65
2022-09-30T11:42:34.622Z,18.05
2022-09-30T11:43:39.305Z,19.33
2022-09-30T11:44:44.588Z,19.42
2022-09-30T11:46:14.160Z,16.88
2022-09-30T11:49:26.171Z,13.65
2022-09-30T11:50:40.402Z,14.00
2022-09-30T11:52:14.473Z,15.57
2022-09-30T11:53:37.889Z,16.83
2022-09-30T11:55:01.146Z,17.52
2022-09-30T11:56:20.801Z,15.35
2022-09-30T11:57:46.293Z,16.75
2022-09-30T11:58:51.999Z,16.48
2022-09-30T12:00:15.069Z,15.45
2022-09-30T12:01:30.283Z,21.50
2022-09-30T12:02:44.751Z,21.67
2022-09-30T12:03:57.606Z,17.55
2022-09-30T12:05:28.509Z,16.42
2022-09-30T12:06:53.479Z,16.38
2022-09-30T12:08:03.390Z,15.07
2022-09-30T12:09:37.188Z,16.60
2022-09-30T12:11:13.666Z,16.55
2022-09-30T12:12:18.257Z,16.85
2022-09-30T12:13:25.671Z,15.07
2022-09-30T12:14:54.134Z,18.27
2022-09-30T12:15:58.766Z,14.77
2022-09-30T12:17:02.354Z,15.02
2022-09-30T12:18:09.386Z,14.32
2022-09-30T12:19:25.496Z,13.23
2022-09-30T12:20:46.565Z,12.93
2022-09-30T12:22:29.711Z,15.10
2022-09-30T12:23:43.591Z,19.67
2022-09-30T12:24:48.138Z,17.80
2022-09-30T12:25:57.953Z,15.88
2022-09-30T12:27:01.903Z,24.08
2022-09-30T12:28:29.257Z,14.15
2022-09-30T12:29:55.879Z,17.33
2022-09-30T12:31:19.402Z,13.73
2022-09-30T12:32:50.030Z,16.48
2022-09-30T12:34:18.121Z,14.02
2022-09-30T12:35:19.702Z,13.35
2022-09-30T12:36:55.655Z,14.68
2022-09-30T12:38:30.241Z,12.45
2022-09-30T12:39:56.193Z,15.10
2022-09-30T12:41:15.284Z,13.82
2022-09-30T12:42:46.024Z,14.63
2022-09-30T12:44:17.626Z,14.68
2022-09-30T12:45:40.799Z,16.60
2022-09-30T12:47:00.901Z,12.77
2022-09-30T12:48:17.187Z,14.93
2022-09-30T12:49:24.044Z,13.50
2022-09-30T12:50:33.104Z,13.05
2022-09-30T12:51:38.923Z,13.82
2022-09-30T12:52:40.762Z,12.57
2022-09-30T12:53:42.499Z,12.90
2022-09-30T12:55:05.836Z,17.73
2022-09-30T12:56:17.580Z,16.60
2022-09-30T12:57:30.840Z,12.65
2022-09-30T12:58:38.313Z,13.15
2022-09-30T12:59:54.947Z,13.88
2022-09-30T13:01:13.180Z,15.05
2022-09-30T13:02:36.382Z,13.25
2022-09-30T13:04:04.297Z,12.85
2022-09-30T13:05:47.014Z,15.70
2022-09-30T13:06:48.676Z,15.18
2022-09-30T13:08:05.250Z,12.38
2022-09-30T13:09:22.788Z,13.98
2022-09-30T13:10:30.686Z,14.88
2022-09-30T13:11:32.318Z,13.52
2022-09-30T13:12:43.162Z,12.98
2022-09-30T13:14:21.196Z,12.23
2022-09-30T13:15:31.584Z,14.90
2022-09-30T13:17:07.439Z,13.30
2022-09-30T13:18:22.610Z,13.07
2022-09-30T13:19:40.475Z,13.13
2022-09-30T13:21:18.624Z,12.60
2022-09-30T13:22:29.806Z,12.05
2022-09-30T13:23:39.025Z,12.88
2022-09-30T13:24:58.673Z,12.65
2022-09-30T13:26:01.948Z,13.80
2022-09-30T13:27:09.446Z,12.23
2022-09-30T13:28:24.588Z,13.15
2022-09-30T13:29:28.081Z,12.20
2022-09-30T13:30:34.615Z,12.57
2022-09-30T13:31:49.240Z,13.95
2022-09-30T13:32:58.309Z,13.05
2022-09-30T13:34:02.724Z,12.55
2022-09-30T13:35:43.371Z,12.50
2022-09-30T13:37:05.616Z,12.38
2022-09-30T13:38:13.424Z,12.90
2022-09-30T13:39:18.059Z,12.00
2022-09-30T13:40:43.317Z,15.60
2022-09-30T13:42:24.769Z,12.15
2022-09-30T13:43:33.538Z,13.00
2022-09-30T13:44:58.950Z,15.50
2022-09-30T13:46:13.025Z,12.60
2022-09-30T13:47:26.197Z,13.25
2022-09-30T13:48:37.967Z,13.65
2022-09-30T13:50:16.365Z,12.13
2022-09-30T13:51:22.047Z,12.95
2022-09-30T13:52:33.335Z,13.73
2022-09-30T13:53:44.506Z,14.05
2022-09-30T13:54:48.451Z,13.73
2022-09-30T13:55:56.147Z,16.88
2022-09-30T13:57:00.181Z,15.45
2022-09-30T13:58:39.774Z,12.57
2022-09-30T14:00:05.763Z,11.60
2022-09-30T14:01:36.110Z,13.48
2022-09-30T14:02:54.532Z,14.00
2022-09-30T14:04:30.465Z,12.52
2022-09-30T14:05:54.317Z,14.63
2022-09-30T14:07:09.055Z,13.48
2022-09-30T14:08:54.912Z,13.13
2022-09-30T14:10:34.994Z,12.38
2022-09-30T14:12:06.355Z,12.10
2022-09-30T14:13:32.338Z,15.10
2022-09-30T14:15:11.956Z,12.98
2022-09-30T14:16:57.830Z,11.75
2022-09-30T14:18:29.772Z,12.80
2022-09-30T14:19:56.668Z,16.63
2022-09-30T14:21:29.383Z,13.32
2022-09-30T14:22:31.305Z,12.32
2022-09-30T14:23:33.095Z,12.77
2022-09-30T14:24:40.530Z,13.00
2022-09-30T14:25:53.218Z,12.45
2022-09-30T14:27:02.045Z,14.52
2022-09-30T14:28:13.442Z,11.45
2022-09-30T14:29:28.049Z,13.80
2022-09-30T14:30:37.700Z,12.82
2022-09-30T14:31:48.675Z,12.65
2022-09-30T14:33:02.848Z,16.48
2022-09-30T14:34:04.813Z,12.02
2022-09-30T14:35:09.111Z,12.57
2022-09-30T14:36:16.400Z,13.23
2022-09-30T14:37:30.157Z,13.10
2022-09-30T14:38:33.997Z,14.40
2022-09-30T14:39:37.352Z,15.35
2022-09-30T14:40:49.521Z,13.68
2022-09-30T14:41:57.605Z,12.77
2022-09-30T14:43:02.722Z,11.98
2022-09-30T14:44:05.771Z,13.65
2022-09-30T14:45:09.721Z,18.30
2022-09-30T14:46:26.740Z,13.55
2022-09-30T14:47:28.760Z,11.55
2022-09-30T14:48:34.578Z,12.82
2022-09-30T14:49:37.481Z,11.95
2022-09-30T14:50:53.604Z,15.18
2022-09-30T14:51:55.446Z,12.75
2022-09-30T14:53:00.471Z,11.98
2022-09-30T14:54:02.507Z,14.23
2022-09-30T14:55:04.709Z,12.63
2022-09-30T14:56:23.562Z,11.70
2022-09-30T14:57:25.952Z,12.10
2022-09-30T14:58:31.514Z,12.85
2022-09-30T14:59:38.337Z,12.48
2022-09-30T15:00:43.350Z,13.57
2022-09-30T15:01:48.711Z,13.20
2022-09-30T15:02:50.492Z,14.00
2022-09-30T15:04:11.342Z,18.35
2022-09-30T15:05:15.897Z,15.15
2022-09-30T15:06:22.006Z,13.55
2022-09-30T15:07:23.752Z,15.32